Flight Track Log - Related Links

Times and Time Zones

All times are in EDT time to prevent confusion due to time zone crossing. See the AWI4010 flight status page for this flight to view local times or setup timezone preferences in your user account.

Time Position Orientation Groundspeed Altitude Reporting Facility
EDT Latitude Longitude Course Direction KTS MPH feet Rate Location/Type
Wed 11:25:00 AM 35.2306 -80.9392 72° East 165 190 1,500  Level Atlanta Center
Wed 11:27:12 AM 35.2986 -80.8297 53° Northeast 273 314 5,500 1,906 Climbing Atlanta Center
Wed 11:28:12 AM 35.2919 -80.7333 95° East 278 320 7,600 2,300 Climbing Atlanta Center
Wed 11:29:12 AM 35.2975 -80.6339 86° East 278 320 10,100 1,950 Climbing Atlanta Center
Wed 11:30:00 AM 35.3488 -80.4082 72° East  Level FlightAware Approximate
Wed 11:30:12 AM 35.3197 -80.5286 75° East 297 342 11,500  Level Atlanta Center
Wed 11:31:12 AM 35.3519 -80.4178 70° East 322 371 12,100 650 Climbing Atlanta Center
Wed 11:32:12 AM 35.3861 -80.3017 70° East 338 389 12,800 950 Climbing Atlanta Center
Wed 11:33:12 AM 35.4200 -80.1881 70° East 350 403 14,000 600 Climbing Atlanta Center
Wed 11:34:12 AM 35.4539 -80.0692 71° East 357 411 14,000 300 Level Atlanta Center
Wed 11:35:12 AM 35.4753 -79.9611 76° East 357 411 14,600 812 Climbing Atlanta Center
Wed 11:36:25 AM 35.5206 -79.8028 71° East 372 428 15,800 1,145 Climbing Washington Center
Wed 11:37:23 AM 35.5522 -79.6767 73° East 391 450 17,100 1,160 Climbing Washington Center
Wed 11:38:24 AM 35.5856 -79.5558 71° East 405 466 18,100 1,041 Climbing Washington Center
Wed 11:39:24 AM 35.6189 -79.4247 73° East 402 463 19,200 1,131 Climbing Washington Center
Wed 11:40:26 AM 35.6708 -79.2994 63° Northeast 402 463 20,400 900 Climbing Washington Center
Wed 11:41:24 AM 35.7186 -79.1736 65° Northeast 409 471 21,000 305 Climbing Washington Center
Wed 11:42:24 AM 35.7769 -79.0356 62° Northeast 414 476 21,000  Level Washington Center
Wed 11:43:25 AM 35.8286 -78.9044 64° Northeast 419 482 21,000  Level Washington Center
Wed 11:44:26 AM 35.8842 -78.7761 62° Northeast 419 482 21,000  Level Washington Center
Wed 11:45:24 AM 35.9761 -78.6925 36° Northeast 402 463 21,000  Level Washington Center
Wed 11:46:24 AM 36.0700 -78.6089 36° Northeast 402 463 21,000  Level Washington Center
Wed 11:47:24 AM 36.1619 -78.5222 37° Northeast 402 463 21,000 -149 Level Washington Center
Wed 11:48:25 AM 36.2536 -78.4381 37° Northeast 402 463 20,700 -893 Descending Washington Center
Wed 11:49:25 AM 36.3433 -78.3536 37° Northeast 407 468 19,200 -864 Descending Washington Center
Wed 11:50:23 AM 36.4328 -78.2692 37° Northeast 401 461 19,000 -756 Descending Washington Center
Wed 11:51:24 AM 36.5222 -78.1894 36° Northeast 401 461 17,700 -1,082 Descending Washington Center
Wed 11:52:25 AM 36.6097 -78.1044 38° Northeast 401 461 16,800 -344 Descending Washington Center
Wed 11:53:26 AM 36.6925 -78.0242 38° Northeast 396 456 17,000 -198 Climbing Washington Center
Wed 11:54:26 AM 36.7736 -77.9411 39° Northeast 389 448 16,400 -1,179 Descending Washington Center
Wed 11:55:23 AM 36.8561 -77.8736 33° Northeast 370 426 14,700 -1,729 Descending Washington Center
Wed 11:56:24 AM 36.9347 -77.8058 35° Northeast 351 404 13,000 -1,672 Descending Washington Center
Wed 11:57:25 AM 37.0067 -77.7456 34° Northeast 328 377 11,300 -1,672 Descending Washington Center
Wed 11:58:26 AM 37.0786 -77.6850 34° Northeast 315 362 9,600 -1,729 Descending Washington Center
Wed 11:59:23 AM 37.1444 -77.6217 37° Northeast 300 345 7,900 -1,678 Descending Washington Center
Wed 12:00:24 PM 37.1997 -77.5683 38° Northeast 295 339 6,300 -1,512 Descending Washington Center
Wed 12:01:26 PM 37.2611 -77.5047 40° Northeast 284 327 4,800 -1,328 Descending Washington Center
Wed 12:02:26 PM 37.3183 -77.4486 38° Northeast 274 315 3,600 -966 Descending Washington Center
Wed 12:03:24 PM 37.3692 -77.3975 39° Northeast 254 292 2,900 -879 Descending Washington Center
Wed 12:05:44 PM 37.4833 -77.3333 24° Northeast 143 165 700 -943 Descending Potomac TRACON
Wed 12:07:00 PM 37.5000 -77.3167 North  Level FlightAware Approximate
Wed 12:14:00 PM 37.5052 -77.3197 North  Level Estimated

Login

Don't have an account? Register now (free) for customized features, flight alerts, and more!